createdAt,value
2017-11-08T09:00:46.163Z,5.00
2017-11-08T09:03:13.667Z,6.67
2017-11-08T09:05:41.182Z,5.20
2017-11-08T09:08:09.037Z,5.03
2017-11-08T09:10:36.498Z,5.17
2017-11-08T09:13:03.992Z,4.97
2017-11-08T09:15:31.456Z,5.53
2017-11-08T09:17:58.919Z,5.60
2017-11-08T09:20:27.288Z,5.07
2017-11-08T09:22:54.781Z,5.00
2017-11-08T09:25:22.262Z,5.33
2017-11-08T09:27:50.629Z,5.07
2017-11-08T09:30:18.116Z,5.03
2017-11-08T09:32:46.335Z,4.83
2017-11-08T09:35:13.793Z,4.43
2017-11-08T09:37:46.865Z,4.70
2017-11-08T09:40:14.358Z,4.70
2017-11-08T09:42:41.812Z,4.70
2017-11-08T09:45:12.163Z,4.47
2017-11-08T09:47:39.651Z,4.80
2017-11-08T09:50:07.109Z,5.90
2017-11-08T09:52:35.377Z,4.50
2017-11-08T09:55:02.829Z,4.90
2017-11-08T09:57:30.335Z,5.60
2017-11-08T09:59:57.819Z,4.50
2017-11-08T10:02:25.251Z,4.60
2017-11-08T10:04:52.734Z,4.77
2017-11-08T10:07:20.484Z,4.70
2017-11-08T10:09:52.073Z,4.67
2017-11-08T10:12:20.237Z,4.77
2017-11-08T10:14:47.690Z,4.60
2017-11-08T10:17:15.917Z,4.13
2017-11-08T10:19:43.397Z,4.20
2017-11-08T10:22:10.898Z,5.03
2017-11-08T10:24:43.336Z,4.87
2017-11-08T10:27:10.812Z,4.60
2017-11-08T10:29:38.261Z,4.50
2017-11-08T10:32:05.751Z,4.30
2017-11-08T10:34:33.255Z,4.43
2017-11-08T10:37:00.745Z,3.70
2017-11-08T10:39:28.218Z,4.10
2017-11-08T10:41:55.694Z,4.63
2017-11-08T10:44:23.594Z,4.33
2017-11-08T10:46:51.044Z,4.20
2017-11-08T10:49:21.812Z,4.30
2017-11-08T10:51:49.263Z,4.30
2017-11-08T10:54:16.724Z,4.53
2017-11-08T10:56:44.214Z,4.60
2017-11-08T10:59:17.408Z,4.37
2017-11-08T11:01:44.916Z,4.17
2017-11-08T11:04:13.171Z,4.70
2017-11-08T11:06:40.639Z,4.33
2017-11-08T11:09:08.866Z,4.40
2017-11-08T11:11:36.661Z,4.43
2017-11-08T11:14:09.867Z,4.90
2017-11-08T11:16:37.354Z,4.90
2017-11-08T11:19:04.833Z,4.90
2017-11-08T11:21:32.457Z,4.60
2017-11-08T11:24:03.384Z,4.70
2017-11-08T11:26:34.679Z,5.17
2017-11-08T11:29:02.160Z,5.50
2017-11-08T11:31:29.641Z,6.33
2017-11-08T11:33:57.138Z,6.10
2017-11-08T11:36:24.624Z,6.30
2017-11-08T11:38:55.057Z,6.73
2017-11-08T11:41:22.512Z,6.20
2017-11-08T11:43:49.999Z,6.60
2017-11-08T11:46:17.474Z,7.20
2017-11-08T12:02:11.663Z,7.00
2017-11-08T12:04:39.133Z,8.03
2017-11-08T12:07:06.617Z,7.83
2017-11-08T12:09:34.422Z,8.03
2017-11-08T12:12:01.921Z,7.50
2017-11-08T12:14:29.384Z,8.17
2017-11-08T12:16:57.777Z,7.67
2017-11-08T12:19:25.274Z,8.73
2017-11-08T12:21:52.737Z,7.07
2017-11-08T12:24:20.242Z,7.50
2017-11-08T12:26:47.732Z,6.80
2017-11-08T12:29:15.249Z,7.70
2017-11-08T12:31:43.174Z,6.90
2017-11-08T12:34:10.648Z,7.07
2017-11-08T12:36:38.130Z,7.70
2017-11-08T12:39:05.627Z,7.10
2017-11-08T12:41:36.029Z,6.60
2017-11-08T12:44:03.533Z,6.43
2017-11-08T12:46:36.991Z,7.27
2017-11-08T12:49:04.475Z,6.83
2017-11-08T12:51:31.946Z,5.53
2017-11-08T12:53:59.450Z,6.60
2017-11-08T12:56:26.920Z,6.67
2017-11-08T12:58:54.413Z,6.73
2017-11-08T13:01:21.901Z,5.80
2017-11-08T13:03:49.372Z,5.80
2017-11-08T13:06:16.825Z,7.37
2017-11-08T13:08:46.383Z,5.17
2017-11-08T13:11:19.436Z,7.00
2017-11-08T13:13:46.922Z,6.30
2017-11-08T13:16:14.445Z,5.90
2017-11-08T13:18:41.910Z,6.40
2017-11-08T13:21:09.692Z,6.77
2017-11-08T13:23:37.154Z,6.13
2017-11-08T13:26:04.602Z,6.60
2017-11-08T13:28:32.193Z,6.10
2017-11-08T13:30:59.663Z,6.30
2017-11-08T13:33:27.936Z,5.83
2017-11-08T13:35:56.203Z,6.10
2017-11-08T13:38:23.665Z,5.47
2017-11-08T13:40:51.929Z,5.73
2017-11-08T13:43:19.493Z,6.23
2017-11-08T13:45:49.448Z,6.23
2017-11-08T13:48:16.896Z,6.00
2017-11-08T13:50:44.365Z,5.93
2017-11-08T13:53:11.845Z,7.17
2017-11-08T13:55:39.326Z,5.50
2017-11-08T13:58:07.384Z,5.97
2017-11-08T14:00:35.018Z,5.80
2017-11-08T14:03:02.515Z,5.70
2017-11-08T14:05:29.983Z,5.20
2017-11-08T14:07:57.454Z,5.30
2017-11-08T14:10:24.951Z,5.37
2017-11-08T14:12:52.409Z,5.30
2017-11-08T14:15:19.905Z,5.27
2017-11-08T14:17:47.697Z,5.93
2017-11-08T14:20:15.162Z,5.10
2017-11-08T14:22:42.653Z,5.30
2017-11-08T14:25:10.150Z,6.00
2017-11-08T14:27:37.652Z,5.00
2017-11-08T14:30:05.114Z,5.40
2017-11-08T14:32:32.594Z,5.23
2017-11-08T14:35:00.075Z,5.77
2017-11-08T14:37:27.615Z,5.43
2017-11-08T14:39:55.123Z,5.20
2017-11-08T14:42:24.780Z,5.40
2017-11-08T14:44:52.226Z,5.10
2017-11-08T14:47:19.895Z,5.50
2017-11-08T14:49:47.725Z,5.07
2017-11-08T14:52:15.241Z,5.10
2017-11-08T14:54:42.720Z,5.37
2017-11-08T14:57:10.244Z,5.10
2017-11-08T14:59:37.853Z,5.13
2017-11-08T15:02:06.079Z,5.43
2017-11-08T15:04:33.897Z,5.63
2017-11-08T15:07:01.345Z,4.90
2017-11-08T15:09:28.809Z,5.33
2017-11-08T15:11:58.079Z,5.57
2017-11-08T15:14:26.379Z,5.10
2017-11-08T15:16:53.875Z,4.70
2017-11-08T15:19:21.651Z,5.13
2017-11-08T15:21:49.121Z,4.57
2017-11-08T15:24:16.619Z,4.27
2017-11-08T15:26:44.523Z,4.67
2017-11-08T15:29:12.032Z,5.33
2017-11-08T15:31:39.511Z,4.60
2017-11-08T15:34:08.077Z,4.37
2017-11-08T15:36:35.669Z,4.10
2017-11-08T15:39:03.145Z,5.30
2017-11-08T15:41:30.671Z,4.47
2017-11-08T15:43:58.160Z,4.90
2017-11-08T15:46:31.715Z,4.93
2017-11-08T15:49:03.030Z,4.90
2017-11-08T15:51:30.538Z,4.20
2017-11-08T15:53:58.374Z,5.00
2017-11-08T15:56:25.835Z,5.03
2017-11-08T15:58:53.307Z,4.80
2017-11-08T16:01:23.968Z,4.70
2017-11-08T16:03:51.432Z,4.50
2017-11-08T16:06:19.175Z,5.13
2017-11-08T16:08:49.486Z,4.83
2017-11-08T16:11:16.982Z,4.77
2017-11-08T16:13:44.437Z,3.73
2017-11-08T16:16:12.290Z,4.30
2017-11-08T16:18:39.764Z,4.47
2017-11-08T16:21:07.227Z,4.33
2017-11-08T16:23:35.023Z,3.90
2017-11-08T16:26:02.504Z,4.03
2017-11-08T16:28:29.977Z,4.83
2017-11-08T16:30:57.458Z,4.50
2017-11-08T16:33:24.954Z,4.93
2017-11-08T16:35:52.463Z,4.47
2017-11-08T16:38:19.982Z,4.40
2017-11-08T16:40:47.456Z,5.13
2017-11-08T16:43:14.937Z,4.23
2017-11-08T16:45:42.760Z,4.80
2017-11-08T16:48:10.256Z,5.00
2017-11-08T16:50:37.753Z,5.20
2017-11-08T16:53:05.573Z,3.90
2017-11-08T16:55:33.136Z,4.63
2017-11-08T16:58:01.417Z,4.57
2017-11-08T17:00:29.279Z,4.93
2017-11-08T17:02:56.810Z,4.70
2017-11-08T17:05:24.333Z,5.07
2017-11-08T17:07:52.130Z,4.13
2017-11-08T17:10:19.604Z,4.60
2017-11-08T17:12:47.059Z,4.50
2017-11-08T17:15:14.920Z,4.17
2017-11-08T17:17:42.375Z,4.80
2017-11-08T17:20:09.826Z,4.70
2017-11-08T17:22:37.678Z,5.03
2017-11-08T17:25:05.935Z,4.57
2017-11-08T17:27:33.424Z,4.60
2017-11-08T17:30:00.911Z,5.10
2017-11-08T17:32:28.407Z,4.57
2017-11-08T17:34:55.894Z,4.53
2017-11-08T17:37:24.142Z,6.80
2017-11-08T17:39:51.599Z,4.10
2017-11-08T17:42:19.095Z,4.50
2017-11-08T17:44:47.662Z,3.87
2017-11-08T17:47:15.905Z,4.67
2017-11-08T17:49:43.363Z,4.50
2017-11-08T17:52:10.864Z,4.67
2017-11-08T17:54:38.506Z,4.50
2017-11-08T17:57:06.827Z,4.83
2017-11-08T17:59:34.642Z,4.20
2017-11-08T18:02:02.891Z,4.40
2017-11-08T18:04:30.354Z,4.53
2017-11-08T18:06:58.262Z,4.60
2017-11-08T18:09:25.761Z,4.83
2017-11-08T18:11:53.255Z,4.33
2017-11-08T18:14:20.738Z,4.00
2017-11-08T18:16:48.308Z,3.90
2017-11-08T18:19:15.801Z,4.20
2017-11-08T18:21:43.619Z,4.27
2017-11-08T18:24:11.088Z,4.67
2017-11-08T18:26:38.726Z,5.60
2017-11-08T18:29:06.414Z,4.20
2017-11-08T18:31:34.100Z,4.30
2017-11-08T18:34:01.542Z,4.53
2017-11-08T18:36:29.417Z,4.30
2017-11-08T18:38:57.047Z,4.73
2017-11-08T18:41:24.697Z,4.30
2017-11-08T18:43:53.675Z,4.07
2017-11-08T18:46:21.173Z,4.17
2017-11-08T18:48:49.414Z,4.00
2017-11-08T18:51:16.984Z,4.13
2017-11-08T18:53:44.491Z,4.37
2017-11-08T18:56:11.981Z,3.73
2017-11-08T18:58:39.494Z,4.40
2017-11-08T19:01:06.970Z,4.00
2017-11-08T19:03:34.445Z,4.20
2017-11-08T19:06:01.942Z,3.93
2017-11-08T19:08:29.432Z,3.70
2017-11-08T19:10:57.295Z,5.00
2017-11-08T19:13:25.128Z,4.37
2017-11-08T19:15:52.590Z,4.00
2017-11-08T19:18:20.059Z,4.10
2017-11-08T19:20:47.910Z,4.47
2017-11-08T19:23:15.377Z,4.03
2017-11-08T19:25:42.839Z,3.87
2017-11-08T19:28:10.331Z,3.90
2017-11-08T19:30:37.810Z,3.67
2017-11-08T19:33:05.309Z,3.87
2017-11-08T19:35:32.777Z,4.43
2017-11-08T19:38:00.254Z,4.03
2017-11-08T19:40:27.914Z,3.70
2017-11-08T19:42:55.382Z,3.80
2017-11-08T19:45:23.192Z,3.67
2017-11-08T19:47:50.688Z,3.80
2017-11-08T19:50:19.026Z,3.87
2017-11-08T19:52:46.693Z,3.63
2017-11-08T19:55:14.968Z,3.90
2017-11-08T19:57:43.587Z,3.80
2017-11-08T20:00:11.144Z,3.40
2017-11-08T20:02:38.683Z,3.80
2017-11-08T20:05:06.938Z,3.77
2017-11-08T20:07:34.441Z,3.53
2017-11-08T20:10:01.923Z,3.30
2017-11-08T20:12:29.485Z,3.77
2017-11-08T20:14:57.056Z,3.63
2017-11-08T20:17:24.659Z,4.10
2017-11-08T20:19:52.233Z,3.60
2017-11-08T20:22:20.121Z,3.63
2017-11-08T20:24:47.668Z,3.93
2017-11-08T20:27:15.196Z,3.70
2017-11-08T20:29:42.824Z,3.73
2017-11-08T20:32:10.435Z,4.20
2017-11-08T20:34:38.177Z,3.77
2017-11-08T20:37:05.783Z,3.80
2017-11-08T20:39:33.317Z,3.57
2017-11-08T20:42:00.973Z,4.40
2017-11-08T20:44:29.282Z,3.90
2017-11-08T20:46:57.050Z,4.10
2017-11-08T20:49:24.552Z,3.57
2017-11-08T20:51:52.826Z,3.57
2017-11-08T20:54:21.091Z,3.10
2017-11-08T20:56:48.686Z,3.30
2017-11-08T20:59:16.440Z,3.40
2017-11-08T21:01:45.072Z,3.77
2017-11-08T21:04:12.732Z,3.60
2017-11-08T21:06:40.271Z,3.87
2017-11-08T21:09:08.376Z,3.60
2017-11-08T21:11:36.178Z,3.20
2017-11-08T21:14:03.714Z,3.97
2017-11-08T21:16:31.213Z,3.30
2017-11-08T21:18:58.729Z,3.50
2017-11-08T21:21:27.428Z,4.27
2017-11-08T21:23:54.934Z,4.00
2017-11-08T21:26:22.580Z,3.43
2017-11-08T21:28:50.238Z,3.27
2017-11-08T21:31:18.005Z,3.23
2017-11-08T21:33:45.541Z,3.23
2017-11-08T21:36:14.446Z,3.00
2017-11-08T21:38:42.708Z,3.77
2017-11-08T21:41:11.087Z,3.30
2017-11-08T21:43:38.701Z,3.47
2017-11-08T21:46:06.220Z,3.60
2017-11-08T21:48:34.479Z,3.33
2017-11-08T21:51:01.974Z,3.30
2017-11-08T21:53:29.514Z,3.73
2017-11-08T21:55:57.970Z,3.90
2017-11-08T21:58:26.484Z,3.40
2017-11-08T22:00:54.239Z,3.80
2017-11-08T22:03:21.890Z,3.80
2017-11-08T22:05:49.893Z,3.33
2017-11-08T22:08:17.509Z,3.50
2017-11-08T22:10:45.158Z,3.23
2017-11-08T22:13:12.772Z,3.57
2017-11-08T22:15:40.291Z,3.00
2017-11-08T22:18:08.039Z,3.60
2017-11-08T22:20:52.383Z,3.40
2017-11-08T22:23:20.416Z,3.20
2017-11-08T22:25:47.932Z,3.50
2017-11-08T22:28:15.684Z,3.50
2017-11-08T22:30:43.580Z,3.23
2017-11-08T22:33:12.077Z,2.90
2017-11-08T22:35:39.723Z,3.00
2017-11-08T22:38:08.026Z,3.57
2017-11-08T22:40:35.916Z,2.90
2017-11-08T22:43:03.388Z,3.20
2017-11-08T22:45:31.046Z,3.07
2017-11-08T22:47:59.920Z,4.30
2017-11-08T22:50:27.403Z,3.50
2017-11-08T22:52:55.295Z,3.30
2017-11-08T22:55:23.677Z,3.23
2017-11-08T22:57:52.383Z,3.37
2017-11-08T23:00:20.716Z,3.23
2017-11-08T23:02:48.351Z,3.03
2017-11-08T23:05:16.115Z,3.27
2017-11-08T23:07:43.623Z,3.60
2017-11-08T23:10:11.935Z,3.67
2017-11-08T23:12:40.703Z,4.27
2017-11-08T23:15:08.367Z,3.03
2017-11-08T23:17:36.192Z,3.47
2017-11-08T23:20:03.642Z,3.20
2017-11-08T23:22:31.339Z,3.57
2017-11-08T23:24:59.156Z,3.70
2017-11-08T23:27:26.609Z,3.27
2017-11-08T23:29:54.393Z,3.37
2017-11-08T23:32:22.068Z,3.50
2017-11-08T23:34:49.517Z,3.73
2017-11-08T23:37:18.807Z,3.20
2017-11-08T23:39:46.296Z,3.73
2017-11-08T23:42:13.938Z,3.10
2017-11-08T23:44:41.415Z,3.80
2017-11-08T23:47:08.867Z,3.73
2017-11-08T23:49:37.352Z,3.37
2017-11-08T23:52:05.160Z,3.50
2017-11-08T23:54:34.413Z,3.47
2017-11-08T23:57:02.642Z,3.50
2017-11-08T23:59:30.099Z,3.60
